createdAt,value
2018-04-06T00:01:41.468Z,2.20
2018-04-06T00:04:07.737Z,2.30
2018-04-06T00:06:34.060Z,2.30
2018-04-06T00:09:00.351Z,2.30
2018-04-06T00:11:26.593Z,2.20
2018-04-06T00:13:52.959Z,2.20
2018-04-06T00:16:19.407Z,2.30
2018-04-06T00:18:45.677Z,2.30
2018-04-06T00:21:11.945Z,2.30
2018-04-06T00:23:38.165Z,2.20
2018-04-06T00:26:04.429Z,2.30
2018-04-06T00:28:30.634Z,2.30
2018-04-06T00:30:57.617Z,2.20
2018-04-06T00:33:24.016Z,2.10
2018-04-06T00:35:50.471Z,2.20
2018-04-06T00:38:16.752Z,2.10
2018-04-06T00:40:43.029Z,2.00
2018-04-06T00:43:09.338Z,2.00
2018-04-06T00:45:35.685Z,2.00
2018-04-06T00:48:01.977Z,2.00
2018-04-06T00:50:28.226Z,1.90
2018-04-06T00:52:54.452Z,1.80
2018-04-06T00:55:20.701Z,1.90
2018-04-06T00:57:46.997Z,1.90
2018-04-06T01:00:13.262Z,1.80
2018-04-06T01:02:39.577Z,1.70
2018-04-06T01:05:05.790Z,1.70
2018-04-06T01:07:33.899Z,1.70
2018-04-06T01:10:00.174Z,1.70
2018-04-06T01:12:26.457Z,1.70
2018-04-06T01:14:52.732Z,1.70
2018-04-06T01:17:18.991Z,1.60
2018-04-06T01:19:45.236Z,1.50
2018-04-06T01:22:11.451Z,1.50
2018-04-06T01:24:37.691Z,1.50
2018-04-06T01:27:04.002Z,1.50
2018-04-06T01:29:30.236Z,1.50
2018-04-06T01:31:56.465Z,1.50
2018-04-06T01:34:22.704Z,1.50
2018-04-06T01:36:48.945Z,1.40
2018-04-06T01:39:15.213Z,1.30
2018-04-06T01:41:42.208Z,1.30
2018-04-06T01:44:08.597Z,1.30
2018-04-06T01:46:35.653Z,1.20
2018-04-06T01:49:01.923Z,1.20
2018-04-06T01:51:28.926Z,1.30
2018-04-06T01:53:55.239Z,1.30
2018-04-06T01:56:21.534Z,1.30
2018-04-06T01:58:47.752Z,1.30
2018-04-06T02:01:14.050Z,1.20
2018-04-06T02:03:40.298Z,1.20
2018-04-06T02:06:07.283Z,1.20
2018-04-06T02:08:33.580Z,1.20
2018-04-06T02:10:59.879Z,1.20
2018-04-06T02:13:26.149Z,1.20
2018-04-06T02:15:52.417Z,1.20
2018-04-06T02:18:18.636Z,1.20
2018-04-06T02:20:44.868Z,1.20
2018-04-06T02:23:11.143Z,1.20
2018-04-06T02:25:38.186Z,1.10
2018-04-06T02:28:04.388Z,1.10
2018-04-06T02:30:30.630Z,1.10
2018-04-06T02:32:56.856Z,1.00
2018-04-06T02:35:23.105Z,1.00
2018-04-06T02:37:49.329Z,1.10
2018-04-06T02:40:15.555Z,1.00
2018-04-06T02:42:41.816Z,1.00
2018-04-06T02:45:08.011Z,1.10
2018-04-06T02:47:34.244Z,1.10
2018-04-06T02:50:00.543Z,1.10
2018-04-06T02:52:26.804Z,1.10
2018-04-06T02:54:53.017Z,1.10
2018-04-06T02:57:19.278Z,1.00
2018-04-06T02:59:45.503Z,1.10
2018-04-06T03:02:11.796Z,1.10
2018-04-06T03:04:38.074Z,1.10
2018-04-06T03:07:05.036Z,1.10
2018-04-06T03:09:32.205Z,1.10
2018-04-06T03:11:58.529Z,1.00
2018-04-06T03:14:24.733Z,1.10
2018-04-06T03:16:50.993Z,1.10
2018-04-06T03:19:17.268Z,1.10
2018-04-06T03:21:43.476Z,1.10
2018-04-06T03:24:09.715Z,1.00
2018-04-06T03:26:35.939Z,1.00
2018-04-06T03:29:02.201Z,1.10
2018-04-06T03:31:29.213Z,1.10
2018-04-06T03:33:55.488Z,1.10
2018-04-06T03:36:21.697Z,1.10
2018-04-06T03:38:47.982Z,1.10
2018-04-06T03:41:14.172Z,1.20
2018-04-06T03:43:40.435Z,1.10
2018-04-06T03:46:06.689Z,1.00
2018-04-06T03:48:32.948Z,1.10
2018-04-06T03:50:59.222Z,1.10
2018-04-06T03:53:25.453Z,1.10
2018-04-06T03:55:51.688Z,1.10
2018-04-06T03:58:18.646Z,1.10
2018-04-06T04:00:45.627Z,1.10
2018-04-06T04:03:11.920Z,1.10
2018-04-06T04:05:38.216Z,1.10
2018-04-06T04:08:04.429Z,1.10
2018-04-06T04:10:30.645Z,1.10
2018-04-06T04:12:56.904Z,1.10
2018-04-06T04:15:23.160Z,1.10
2018-04-06T04:17:50.145Z,1.10
2018-04-06T04:20:16.381Z,1.10
2018-04-06T04:22:42.592Z,1.10
2018-04-06T04:25:09.841Z,1.10
2018-04-06T04:27:36.073Z,1.10
2018-04-06T04:30:02.301Z,1.20
2018-04-06T04:32:28.568Z,1.10
2018-04-06T04:34:54.774Z,1.10
2018-04-06T04:37:21.028Z,1.10
2018-04-06T04:39:47.228Z,1.10
2018-04-06T04:42:13.490Z,1.10
2018-04-06T04:44:39.762Z,1.10
2018-04-06T04:47:05.970Z,1.10
2018-04-06T04:49:32.294Z,1.10
2018-04-06T04:51:58.523Z,1.10
2018-04-06T04:54:25.526Z,1.20
2018-04-06T04:56:51.761Z,1.10
2018-04-06T04:59:18.053Z,1.20
2018-04-06T05:01:45.036Z,1.20
2018-04-06T05:04:11.307Z,1.20
2018-04-06T05:06:37.652Z,1.30
2018-04-06T05:09:04.916Z,1.30
2018-04-06T05:11:31.133Z,1.30
2018-04-06T05:13:57.452Z,1.40
2018-04-06T05:16:24.416Z,1.50
2018-04-06T05:18:50.798Z,1.50
2018-04-06T05:21:17.057Z,1.50
2018-04-06T05:23:43.321Z,1.60
2018-04-06T05:26:09.540Z,1.60
2018-04-06T05:28:36.520Z,1.70
2018-04-06T05:31:03.763Z,1.60
2018-04-06T05:33:33.915Z,1.70
2018-04-06T05:36:00.453Z,1.70
2018-04-06T05:38:27.764Z,1.80
2018-04-06T05:40:53.949Z,1.80
2018-04-06T05:43:20.160Z,1.90
2018-04-06T05:45:46.384Z,2.20
2018-04-06T05:48:13.360Z,2.90
2018-04-06T05:50:39.731Z,2.90
2018-04-06T05:53:06.013Z,2.90
2018-04-06T05:55:32.367Z,2.90
2018-04-06T05:57:58.589Z,3.00
2018-04-06T06:00:26.548Z,3.40
2018-04-06T06:02:52.757Z,3.40
2018-04-06T06:05:19.008Z,3.60
2018-04-06T06:07:45.208Z,3.80
2018-04-06T06:10:11.471Z,3.60
2018-04-06T06:12:37.696Z,3.30
2018-04-06T06:15:03.881Z,3.20
2018-04-06T06:17:30.165Z,3.10
2018-04-06T06:19:56.432Z,3.10
2018-04-06T06:22:22.654Z,3.10
2018-04-06T06:24:49.611Z,3.10
2018-04-06T06:27:15.828Z,3.10
2018-04-06T06:29:42.033Z,3.10
2018-04-06T06:32:08.288Z,3.20
2018-04-06T06:34:34.498Z,3.30
2018-04-06T06:37:00.725Z,3.30
2018-04-06T06:39:27.658Z,3.40
2018-04-06T06:41:54.848Z,3.40
2018-04-06T06:44:21.076Z,3.40
2018-04-06T06:46:47.507Z,3.50
2018-04-06T06:49:13.722Z,3.50
2018-04-06T06:51:40.030Z,3.60
2018-04-06T06:54:06.267Z,3.60
2018-04-06T06:56:32.555Z,3.70
2018-04-06T06:58:58.749Z,3.80
2018-04-06T07:01:25.189Z,3.90
2018-04-06T07:03:51.518Z,3.90
2018-04-06T07:06:18.528Z,4.10
2018-04-06T07:08:44.744Z,4.00
2018-04-06T07:11:10.935Z,4.10
2018-04-06T07:13:37.168Z,4.30
2018-04-06T07:16:03.415Z,4.30
2018-04-06T07:18:29.677Z,4.40
2018-04-06T07:20:55.984Z,4.50
2018-04-06T07:23:22.205Z,4.60
2018-04-06T07:25:48.496Z,4.70
2018-04-06T07:28:14.755Z,4.70
2018-04-06T07:30:41.790Z,4.90
2018-04-06T07:33:07.976Z,4.90
2018-04-06T07:35:34.249Z,5.00
2018-04-06T07:38:00.490Z,5.10
2018-04-06T07:40:27.546Z,5.20
2018-04-06T07:42:53.780Z,5.30
2018-04-06T07:45:20.004Z,5.40
2018-04-06T07:47:46.178Z,5.50
2018-04-06T07:50:12.412Z,5.60
2018-04-06T07:52:38.626Z,5.60
2018-04-06T07:55:04.886Z,5.80
2018-04-06T07:57:31.098Z,5.90
2018-04-06T07:59:57.337Z,6.00
2018-04-06T08:02:25.074Z,6.10
2018-04-06T08:04:51.295Z,6.20
2018-04-06T08:07:17.670Z,6.20
2018-04-06T08:09:43.844Z,6.30
2018-04-06T08:12:10.065Z,6.40
2018-04-06T08:14:36.341Z,6.50
2018-04-06T08:17:02.673Z,6.60
2018-04-06T08:19:28.970Z,6.70
2018-04-06T08:21:55.211Z,6.80
2018-04-06T08:24:21.526Z,6.90
2018-04-06T08:26:47.787Z,7.00
2018-04-06T08:29:13.980Z,7.10
2018-04-06T08:31:40.236Z,7.20
2018-04-06T08:34:06.441Z,7.30
2018-04-06T08:36:32.704Z,7.40
2018-04-06T08:38:58.900Z,7.50
2018-04-06T08:41:25.096Z,7.60
2018-04-06T08:43:51.407Z,7.60
2018-04-06T08:46:17.620Z,7.70
2018-04-06T08:48:44.863Z,7.80
2018-04-06T08:51:11.097Z,7.80
2018-04-06T08:53:37.366Z,7.80
2018-04-06T08:56:03.590Z,7.90
2018-04-06T08:58:29.887Z,7.90
2018-04-06T09:00:56.862Z,8.10
2018-04-06T09:03:23.136Z,8.10
2018-04-06T09:05:49.324Z,8.20
2018-04-06T09:08:16.364Z,8.40
2018-04-06T09:10:42.601Z,8.30
2018-04-06T09:13:08.876Z,8.40
2018-04-06T09:15:35.845Z,8.60
2018-04-06T09:18:02.098Z,8.60
2018-04-06T09:20:28.324Z,8.80
2018-04-06T09:22:54.552Z,8.80
2018-04-06T09:25:20.781Z,8.90
2018-04-06T09:27:46.981Z,9.00
2018-04-06T09:30:13.200Z,9.00
2018-04-06T09:32:39.379Z,9.00
2018-04-06T09:35:05.593Z,9.00
2018-04-06T09:37:31.794Z,9.20
2018-04-06T09:39:58.064Z,9.20
2018-04-06T09:42:24.540Z,9.30
2018-04-06T09:44:50.859Z,9.40
2018-04-06T09:47:17.095Z,9.50
2018-04-06T09:49:43.357Z,9.50
2018-04-06T09:52:10.216Z,9.50
2018-04-06T09:54:36.439Z,9.50
2018-04-06T09:57:02.713Z,9.60
2018-04-06T09:59:28.950Z,9.70
2018-04-06T10:01:55.165Z,9.80
2018-04-06T10:04:21.373Z,9.90
2018-04-06T10:06:48.317Z,10.00
2018-04-06T10:09:14.510Z,10.00
2018-04-06T10:11:40.717Z,10.00
2018-04-06T10:14:07.648Z,10.20
2018-04-06T10:16:33.943Z,10.20
2018-04-06T10:19:00.185Z,10.30
2018-04-06T10:21:26.386Z,10.40
2018-04-06T10:23:52.670Z,10.50
2018-04-06T10:26:18.930Z,10.70
2018-04-06T10:28:45.114Z,10.90
2018-04-06T10:31:12.032Z,11.00
2018-04-06T10:33:38.238Z,11.00
2018-04-06T10:36:04.497Z,11.10
2018-04-06T10:38:30.729Z,11.10
2018-04-06T10:40:57.020Z,11.30
2018-04-06T10:43:23.408Z,11.40
2018-04-06T10:45:49.608Z,11.50
2018-04-06T10:48:15.912Z,11.50
2018-04-06T10:50:42.162Z,11.60
2018-04-06T10:53:08.373Z,11.70
2018-04-06T10:55:34.724Z,11.80
2018-04-06T10:58:01.035Z,11.90
2018-04-06T11:00:27.252Z,12.10
2018-04-06T11:02:53.448Z,12.20
2018-04-06T11:05:19.658Z,12.20
2018-04-06T11:07:45.864Z,12.40
2018-04-06T11:10:12.183Z,12.50
2018-04-06T11:12:38.406Z,12.60
2018-04-06T11:15:04.661Z,12.60
2018-04-06T11:17:30.864Z,12.70
2018-04-06T11:19:57.860Z,13.00
2018-04-06T11:22:24.125Z,13.00
2018-04-06T11:24:50.481Z,13.20
2018-04-06T11:27:16.677Z,13.30
2018-04-06T11:29:42.888Z,13.40
2018-04-06T11:32:09.155Z,13.30
2018-04-06T11:34:35.324Z,13.50
2018-04-06T11:37:01.536Z,13.60
2018-04-06T11:39:27.948Z,13.80
2018-04-06T11:41:54.153Z,13.80
2018-04-06T11:44:20.402Z,14.00
2018-04-06T11:46:46.777Z,14.20
2018-04-06T11:49:13.754Z,14.50
2018-04-06T11:51:40.709Z,14.80
2018-04-06T11:54:08.074Z,14.90
2018-04-06T11:56:34.452Z,14.80
2018-04-06T11:59:00.648Z,15.20
2018-04-06T12:01:26.883Z,15.50
2018-04-06T12:03:53.061Z,15.60
2018-04-06T12:06:19.350Z,16.00
2018-04-06T12:08:45.866Z,16.00
2018-04-06T12:11:12.157Z,16.40
2018-04-06T12:13:38.413Z,16.60
2018-04-06T12:16:05.050Z,16.60
2018-04-06T12:18:32.096Z,17.00
2018-04-06T12:20:58.353Z,17.00
2018-04-06T12:23:24.548Z,17.40
2018-04-06T12:25:50.759Z,17.50
2018-04-06T12:28:17.124Z,17.70
2018-04-06T12:30:43.351Z,17.80
2018-04-06T12:33:09.572Z,17.90
2018-04-06T12:35:35.794Z,18.20
2018-04-06T12:38:02.053Z,18.70
2018-04-06T12:40:28.238Z,18.40
2018-04-06T12:42:54.461Z,18.20
2018-04-06T12:45:20.655Z,18.20
2018-04-06T12:47:46.861Z,18.60
2018-04-06T12:50:13.087Z,18.70
2018-04-06T12:52:39.320Z,18.80
2018-04-06T12:55:06.265Z,19.20
2018-04-06T12:57:33.296Z,19.90
2018-04-06T12:59:59.557Z,19.80
2018-04-06T13:02:25.778Z,20.20
2018-04-06T13:04:52.053Z,20.30
2018-04-06T13:07:18.282Z,20.20
2018-04-06T13:09:44.550Z,20.40
2018-04-06T13:12:10.812Z,20.20
2018-04-06T13:14:37.123Z,20.10
2018-04-06T13:17:04.091Z,20.40
2018-04-06T13:19:30.340Z,20.30
2018-04-06T13:21:56.645Z,20.00
2018-04-06T13:24:22.903Z,19.30
2018-04-06T13:26:50.878Z,19.60
2018-04-06T13:29:17.837Z,19.30
2018-04-06T13:31:44.928Z,18.70
2018-04-06T13:34:11.177Z,18.60
2018-04-06T13:36:37.431Z,18.40
2018-04-06T13:39:03.756Z,18.70
2018-04-06T13:41:29.987Z,18.60
2018-04-06T13:43:56.192Z,18.80
2018-04-06T13:46:22.445Z,18.90
2018-04-06T13:48:49.468Z,18.60
2018-04-06T13:51:15.678Z,18.60
2018-04-06T13:53:41.964Z,18.20
2018-04-06T13:56:08.184Z,18.30
2018-04-06T13:58:34.503Z,18.30
2018-04-06T14:01:00.748Z,18.20
2018-04-06T14:03:27.642Z,18.40
2018-04-06T14:05:53.959Z,18.30
2018-04-06T14:08:20.160Z,18.30
2018-04-06T14:10:46.420Z,18.30
2018-04-06T14:13:12.648Z,18.10
2018-04-06T14:15:39.581Z,18.20
2018-04-06T14:18:05.820Z,18.20
2018-04-06T14:20:32.032Z,18.10
2018-04-06T14:22:58.249Z,18.20
2018-04-06T14:25:24.543Z,18.10
2018-04-06T14:27:50.844Z,17.90
2018-04-06T14:30:17.032Z,18.00
2018-04-06T14:32:43.307Z,18.40
2018-04-06T14:35:09.573Z,18.20
2018-04-06T14:37:35.966Z,18.20
2018-04-06T14:40:02.267Z,18.10
2018-04-06T14:42:28.552Z,17.90
2018-04-06T14:44:54.848Z,18.10
2018-04-06T14:47:21.113Z,18.00
2018-04-06T14:49:47.414Z,17.80
2018-04-06T14:52:13.657Z,17.60
2018-04-06T14:54:39.963Z,17.70
2018-04-06T14:57:06.260Z,17.70
2018-04-06T14:59:32.478Z,17.70
2018-04-06T15:01:58.689Z,17.50
2018-04-06T15:04:24.977Z,17.60
2018-04-06T15:06:51.192Z,17.40
2018-04-06T15:09:17.492Z,17.30
2018-04-06T15:11:43.708Z,17.50
2018-04-06T15:14:09.978Z,17.70
2018-04-06T15:16:36.173Z,17.50
2018-04-06T15:19:02.428Z,17.90
2018-04-06T15:21:29.443Z,18.10
2018-04-06T15:23:56.408Z,18.20
2018-04-06T15:26:23.354Z,18.00
2018-04-06T15:28:49.604Z,18.00
2018-04-06T15:31:16.557Z,17.90
2018-04-06T15:33:42.750Z,17.80
2018-04-06T15:36:08.994Z,17.90
2018-04-06T15:38:35.225Z,17.80
2018-04-06T15:41:01.505Z,17.80
2018-04-06T15:43:27.749Z,17.70
2018-04-06T15:45:53.969Z,17.80
2018-04-06T15:48:20.161Z,17.90
2018-04-06T15:50:46.583Z,18.20
2018-04-06T15:53:12.912Z,18.60
2018-04-06T15:55:39.141Z,18.50
2018-04-06T15:58:06.186Z,18.40
2018-04-06T16:00:32.431Z,18.70
2018-04-06T16:02:58.649Z,18.50
2018-04-06T16:05:24.916Z,18.20
2018-04-06T16:07:51.352Z,18.30
2018-04-06T16:10:17.550Z,17.80
2018-04-06T16:12:43.853Z,18.00
2018-04-06T16:15:10.071Z,17.90
2018-04-06T16:17:36.316Z,17.70
2018-04-06T16:20:02.598Z,17.60
2018-04-06T16:22:28.865Z,17.70
2018-04-06T16:24:55.092Z,17.80
2018-04-06T16:27:21.349Z,17.80
2018-04-06T16:29:47.593Z,18.00
2018-04-06T16:32:13.872Z,17.90
2018-04-06T16:34:40.076Z,18.00
2018-04-06T16:37:06.983Z,18.10
2018-04-06T16:39:33.229Z,18.20
2018-04-06T16:41:59.509Z,18.30
2018-04-06T16:44:26.456Z,18.30
2018-04-06T16:46:52.748Z,18.30
2018-04-06T16:49:18.971Z,17.90
2018-04-06T16:51:48.274Z,17.50
2018-04-06T16:54:15.353Z,16.90
2018-04-06T16:56:41.545Z,16.90
2018-04-06T16:59:07.812Z,16.70
2018-04-06T17:01:34.085Z,16.60
2018-04-06T17:04:00.334Z,16.30
2018-04-06T17:06:28.516Z,16.30
2018-04-06T17:08:54.737Z,16.30
2018-04-06T17:11:20.954Z,16.40
2018-04-06T17:13:47.878Z,16.30
2018-04-06T17:16:14.154Z,16.20
2018-04-06T17:18:41.129Z,16.10
2018-04-06T17:21:07.364Z,16.10
2018-04-06T17:23:33.561Z,16.00
2018-04-06T17:25:59.780Z,16.00
2018-04-06T17:28:25.961Z,16.00
2018-04-06T17:30:52.201Z,15.80
2018-04-06T17:33:18.364Z,15.80
2018-04-06T17:35:44.605Z,15.70
2018-04-06T17:38:11.548Z,15.70
2018-04-06T17:40:37.752Z,15.60
2018-04-06T17:43:04.028Z,15.50
2018-04-06T17:45:30.276Z,15.50
2018-04-06T17:47:56.483Z,15.40
2018-04-06T17:50:22.744Z,15.20
2018-04-06T17:52:49.052Z,15.10
2018-04-06T17:55:15.296Z,14.90
2018-04-06T17:57:41.511Z,14.70
2018-04-06T18:00:07.749Z,14.60
2018-04-06T18:02:33.916Z,14.50
2018-04-06T18:05:00.125Z,14.40
2018-04-06T18:07:26.376Z,14.40
2018-04-06T18:09:52.552Z,14.30
2018-04-06T18:12:18.759Z,14.10
2018-04-06T18:14:45.026Z,14.00
2018-04-06T18:17:11.485Z,14.00
2018-04-06T18:19:38.451Z,13.70
2018-04-06T18:22:04.706Z,13.70
2018-04-06T18:24:30.933Z,13.60
2018-04-06T18:26:57.180Z,13.50
2018-04-06T18:29:23.363Z,13.30
2018-04-06T18:31:49.581Z,13.30
2018-04-06T18:34:15.817Z,13.20
2018-04-06T18:36:42.002Z,13.00
2018-04-06T18:39:08.435Z,12.90
2018-04-06T18:41:34.707Z,12.70
2018-04-06T18:44:00.952Z,12.70
2018-04-06T18:46:27.124Z,12.60
2018-04-06T18:48:53.316Z,12.50
2018-04-06T18:51:19.506Z,12.40
2018-04-06T18:53:45.743Z,12.30
2018-04-06T18:56:11.961Z,12.10
2018-04-06T18:58:38.167Z,12.10
2018-04-06T19:01:04.368Z,12.00
2018-04-06T19:03:30.563Z,11.90
2018-04-06T19:05:56.748Z,11.90
2018-04-06T19:08:22.980Z,11.80
2018-04-06T19:10:49.237Z,11.70
2018-04-06T19:13:15.451Z,11.60
2018-04-06T19:15:41.670Z,11.50
2018-04-06T19:18:08.840Z,11.40
2018-04-06T19:20:35.163Z,11.40
2018-04-06T19:23:01.428Z,11.30
2018-04-06T19:25:27.632Z,11.20
2018-04-06T19:27:53.842Z,11.10
2018-04-06T19:30:20.066Z,11.00
2018-04-06T19:32:46.260Z,11.00
2018-04-06T19:35:12.527Z,11.00
2018-04-06T19:37:38.741Z,10.90
2018-04-06T19:40:04.932Z,10.90
2018-04-06T19:42:31.169Z,10.80
2018-04-06T19:44:57.367Z,10.70
2018-04-06T19:47:23.672Z,10.60
2018-04-06T19:49:49.921Z,10.50
2018-04-06T19:52:16.140Z,10.50
2018-04-06T19:54:42.336Z,10.40
2018-04-06T19:57:08.552Z,10.40
2018-04-06T19:59:34.729Z,10.30
2018-04-06T20:02:00.923Z,10.20
2018-04-06T20:04:27.132Z,10.20
2018-04-06T20:06:53.378Z,10.10
2018-04-06T20:09:19.888Z,10.00
2018-04-06T20:11:46.719Z,10.00
2018-04-06T20:14:12.949Z,10.00
2018-04-06T20:16:39.123Z,10.00
2018-04-06T20:19:05.339Z,9.90
2018-04-06T20:21:32.289Z,9.80
2018-04-06T20:23:59.231Z,9.80
2018-04-06T20:26:25.447Z,9.80
2018-04-06T20:28:51.702Z,9.70
2018-04-06T20:31:17.946Z,9.70
2018-04-06T20:33:44.160Z,9.60
2018-04-06T20:36:10.429Z,9.60
2018-04-06T20:38:37.789Z,9.50
2018-04-06T20:41:04.045Z,9.50
2018-04-06T20:43:30.258Z,9.50
2018-04-06T20:45:56.690Z,9.50
2018-04-06T20:48:22.938Z,9.40
2018-04-06T20:50:49.362Z,9.40
2018-04-06T20:53:15.680Z,9.30
2018-04-06T20:55:42.688Z,9.20
2018-04-06T20:58:08.890Z,9.20
2018-04-06T21:00:35.866Z,9.10
2018-04-06T21:03:02.084Z,9.10
2018-04-06T21:05:29.040Z,9.00
2018-04-06T21:07:55.997Z,9.00
2018-04-06T21:10:22.299Z,9.00
2018-04-06T21:12:48.519Z,9.00
2018-04-06T21:15:14.749Z,8.90
2018-04-06T21:17:40.992Z,8.90
2018-04-06T21:20:07.204Z,8.80
2018-04-06T21:22:33.453Z,8.70
2018-04-06T21:25:00.441Z,8.70
2018-04-06T21:27:26.635Z,8.60
2018-04-06T21:29:52.948Z,8.60
2018-04-06T21:32:19.198Z,8.60
2018-04-06T21:34:46.518Z,8.60
2018-04-06T21:37:12.708Z,8.50
2018-04-06T21:39:39.044Z,8.50
2018-04-06T21:42:05.454Z,8.50
2018-04-06T21:44:31.749Z,8.50
2018-04-06T21:46:57.975Z,8.50
2018-04-06T21:49:24.305Z,8.40
2018-04-06T21:51:50.536Z,8.40
2018-04-06T21:54:16.762Z,8.40
2018-04-06T21:56:42.992Z,8.30
2018-04-06T21:59:09.338Z,8.30
2018-04-06T22:01:35.563Z,8.30
2018-04-06T22:04:02.500Z,8.20
2018-04-06T22:06:28.727Z,8.20
2018-04-06T22:08:54.930Z,8.10
2018-04-06T22:11:21.181Z,8.10
2018-04-06T22:13:47.440Z,8.00
2018-04-06T22:16:13.750Z,8.00
2018-04-06T22:18:40.023Z,8.00
2018-04-06T22:21:06.257Z,8.00
2018-04-06T22:23:32.521Z,7.90
2018-04-06T22:25:58.731Z,7.90
2018-04-06T22:28:24.936Z,7.90
2018-04-06T22:30:51.991Z,7.90
2018-04-06T22:33:18.165Z,7.90
2018-04-06T22:35:44.460Z,7.80
2018-04-06T22:38:10.711Z,7.80
2018-04-06T22:40:36.960Z,7.80
2018-04-06T22:43:03.239Z,7.70
2018-04-06T22:45:29.465Z,7.70
2018-04-06T22:47:55.764Z,7.70
2018-04-06T22:50:22.016Z,7.60
2018-04-06T22:52:48.310Z,7.60
2018-04-06T22:55:14.523Z,7.60
2018-04-06T22:57:40.737Z,7.60
2018-04-06T23:00:07.696Z,7.60
2018-04-06T23:02:34.809Z,7.60
2018-04-06T23:05:01.005Z,7.60
2018-04-06T23:07:27.451Z,7.60
2018-04-06T23:09:53.718Z,7.60
2018-04-06T23:12:19.941Z,7.60
2018-04-06T23:14:46.213Z,7.60
2018-04-06T23:17:12.521Z,7.60
2018-04-06T23:19:39.600Z,7.60
2018-04-06T23:22:05.786Z,7.60
2018-04-06T23:24:32.012Z,7.60
2018-04-06T23:26:58.305Z,7.60
2018-04-06T23:29:25.355Z,7.60
2018-04-06T23:31:51.625Z,7.60
2018-04-06T23:34:17.838Z,7.60
2018-04-06T23:36:44.049Z,7.60
2018-04-06T23:39:10.396Z,7.60
2018-04-06T23:41:36.567Z,7.60
2018-04-06T23:44:03.548Z,7.60
2018-04-06T23:46:29.810Z,7.50
2018-04-06T23:48:56.069Z,7.50
2018-04-06T23:51:22.436Z,7.50
2018-04-06T23:53:48.648Z,7.60
2018-04-06T23:56:14.872Z,7.50
2018-04-06T23:58:41.104Z,7.50
